createdAt,value
2023-04-10T00:00:57.672Z,3.49
2023-04-10T00:03:25.223Z,3.49
2023-04-10T00:05:54.705Z,3.48
2023-04-10T00:08:24.846Z,3.48
2023-04-10T00:10:51.930Z,3.49
2023-04-10T00:13:18.698Z,3.42
2023-04-10T00:15:45.397Z,3.48
2023-04-10T00:18:12.378Z,3.48
2023-04-10T00:20:39.091Z,3.46
2023-04-10T00:23:06.294Z,3.40
2023-04-10T00:25:32.936Z,3.42
2023-04-10T00:27:59.735Z,3.41
2023-04-10T00:30:26.582Z,3.44
2023-04-10T00:32:53.342Z,3.51
2023-04-10T00:35:21.221Z,3.57
2023-04-10T00:37:47.870Z,3.62
2023-04-10T00:40:14.626Z,3.70
2023-04-10T00:42:41.646Z,3.78
2023-04-10T00:45:08.787Z,3.86
2023-04-10T00:47:36.636Z,3.94
2023-04-10T00:50:04.893Z,3.98
2023-04-10T00:52:32.441Z,4.04
2023-04-10T00:54:59.300Z,4.08
2023-04-10T00:57:27.150Z,4.12
2023-04-10T00:59:54.005Z,4.19
2023-04-10T01:02:20.972Z,4.28
2023-04-10T01:04:48.175Z,4.36
2023-04-10T01:08:02.575Z,4.43
2023-04-10T01:10:44.257Z,4.50
2023-04-10T01:13:20.297Z,4.55
2023-04-10T01:15:52.197Z,4.59
2023-04-10T01:18:32.050Z,4.64
2023-04-10T01:20:59.798Z,4.65
2023-04-10T01:23:36.698Z,4.70
2023-04-10T01:26:04.558Z,4.74
2023-04-10T01:28:40.508Z,4.80
2023-04-10T01:31:09.099Z,4.78
2023-04-10T01:33:40.902Z,4.82
2023-04-10T01:36:08.676Z,4.86
2023-04-10T01:38:36.337Z,4.89
2023-04-10T01:41:04.059Z,4.89
2023-04-10T01:43:32.169Z,4.85
2023-04-10T01:45:59.637Z,4.82
2023-04-10T01:48:26.476Z,4.78
2023-04-10T01:50:54.647Z,4.74
2023-04-10T01:53:22.045Z,4.75
2023-04-10T01:55:49.244Z,4.78
2023-04-10T01:58:16.183Z,4.78
2023-04-10T02:00:43.898Z,4.80
2023-04-10T02:03:11.453Z,4.78
2023-04-10T02:06:09.015Z,4.74
2023-04-10T02:08:53.401Z,4.65
2023-04-10T02:11:23.086Z,4.58
2023-04-10T02:13:51.934Z,4.47
2023-04-10T02:16:20.037Z,4.40
2023-04-10T02:18:47.813Z,4.31
2023-04-10T02:21:14.675Z,4.20
2023-04-10T02:23:41.617Z,4.15
2023-04-10T02:26:09.314Z,4.08
2023-04-10T02:28:39.876Z,4.00
2023-04-10T02:31:07.269Z,3.96
2023-04-10T02:33:34.074Z,3.92
2023-04-10T02:36:01.995Z,3.85
2023-04-10T02:38:28.815Z,3.80
2023-04-10T02:40:55.570Z,3.77
2023-04-10T02:43:22.462Z,3.71
2023-04-10T02:45:49.285Z,3.68
2023-04-10T02:48:16.348Z,3.67
2023-04-10T02:50:46.315Z,3.61
2023-04-10T02:53:15.295Z,3.58
2023-04-10T02:55:42.043Z,3.55
2023-04-10T02:58:08.890Z,3.52
2023-04-10T03:00:35.638Z,3.51
2023-04-10T03:03:02.482Z,3.50
2023-04-10T03:05:29.393Z,3.47
2023-04-10T03:07:56.118Z,3.44
2023-04-10T03:10:23.157Z,3.39
2023-04-10T03:12:50.213Z,3.37
2023-04-10T03:15:16.995Z,3.36
2023-04-10T03:17:43.718Z,3.31
2023-04-10T03:20:11.432Z,3.31
2023-04-10T03:22:38.161Z,3.28
2023-04-10T03:25:05.435Z,3.27
2023-04-10T03:27:34.847Z,3.25
2023-04-10T03:30:02.652Z,3.22
2023-04-10T03:32:31.224Z,3.18
2023-04-10T03:34:59.017Z,3.17
2023-04-10T03:37:27.569Z,3.15
2023-04-10T03:39:54.236Z,3.12
2023-04-10T03:42:20.986Z,3.06
2023-04-10T03:44:47.719Z,3.10
2023-04-10T03:47:14.452Z,3.09
2023-04-10T03:49:41.183Z,3.10
2023-04-10T03:52:07.883Z,3.06
2023-04-10T03:54:34.575Z,3.07
2023-04-10T03:57:01.677Z,3.02
2023-04-10T03:59:37.920Z,3.03
2023-04-10T04:02:07.037Z,2.98
2023-04-10T04:04:33.891Z,2.95
2023-04-10T04:07:01.044Z,2.91
2023-04-10T04:09:27.883Z,2.88
2023-04-10T04:11:54.593Z,2.87
2023-04-10T04:14:21.307Z,2.86
2023-04-10T04:16:48.214Z,2.85
2023-04-10T04:19:15.014Z,2.82
2023-04-10T04:21:41.897Z,2.82
2023-04-10T04:24:08.699Z,2.82
2023-04-10T04:26:35.469Z,2.74
2023-04-10T04:29:02.186Z,2.80
2023-04-10T04:31:32.503Z,2.82
2023-04-10T04:34:00.263Z,2.83
2023-04-10T04:36:28.184Z,2.83
2023-04-10T04:38:55.314Z,2.84
2023-04-10T04:41:22.111Z,2.85
2023-04-10T04:43:49.506Z,2.87
2023-04-10T04:46:16.316Z,2.92
2023-04-10T04:48:43.093Z,2.91
2023-04-10T04:51:09.858Z,2.93
2023-04-10T04:53:37.001Z,2.96
2023-04-10T04:56:03.858Z,3.01
2023-04-10T04:58:30.534Z,3.05
2023-04-10T05:00:57.253Z,3.08
2023-04-10T05:03:24.188Z,3.12
2023-04-10T05:05:51.060Z,3.15
2023-04-10T05:08:17.773Z,3.17
2023-04-10T05:10:44.462Z,3.21
2023-04-10T05:13:11.357Z,3.28
2023-04-10T05:15:38.101Z,3.35
2023-04-10T05:18:05.125Z,3.39
2023-04-10T05:20:34.842Z,3.45
2023-04-10T05:23:01.835Z,3.57
2023-04-10T05:25:28.533Z,3.66
2023-04-10T05:27:55.249Z,3.77
2023-04-10T05:30:21.965Z,3.87
2023-04-10T05:32:48.734Z,3.94
2023-04-10T05:35:15.688Z,4.04
2023-04-10T05:37:42.442Z,4.13
2023-04-10T05:40:09.723Z,4.21
2023-04-10T05:42:36.468Z,4.28
2023-04-10T05:45:03.368Z,4.34
2023-04-10T05:47:30.204Z,4.44
2023-04-10T05:49:56.971Z,4.55
2023-04-10T05:52:23.707Z,4.69
2023-04-10T05:54:51.836Z,4.83
2023-04-10T05:57:18.526Z,4.97
2023-04-10T05:59:45.203Z,5.12
2023-04-10T06:02:12.179Z,5.26
2023-04-10T06:04:39.360Z,5.44
2023-04-10T06:07:06.278Z,5.62
2023-04-10T06:09:32.954Z,5.86
2023-04-10T06:11:59.664Z,6.06
2023-04-10T06:14:26.378Z,6.24
2023-04-10T06:16:53.137Z,6.47
2023-04-10T06:19:19.846Z,6.66
2023-04-10T06:21:46.839Z,6.85
2023-04-10T06:24:14.324Z,7.05
2023-04-10T06:26:41.090Z,7.28
2023-04-10T06:29:07.811Z,7.52
2023-04-10T06:31:34.558Z,7.76
2023-04-10T06:34:01.278Z,8.02
2023-04-10T06:36:28.697Z,8.26
2023-04-10T06:38:55.600Z,8.50
2023-04-10T06:41:22.458Z,8.66
2023-04-10T06:43:49.178Z,8.92
2023-04-10T06:46:16.250Z,9.13
2023-04-10T06:48:43.129Z,9.34
2023-04-10T06:51:09.913Z,9.53
2023-04-10T06:53:36.661Z,9.70
2023-04-10T06:56:03.904Z,9.80
2023-04-10T06:58:32.001Z,9.94
2023-04-10T07:01:01.159Z,10.16
2023-04-10T07:03:27.907Z,10.37
2023-04-10T07:05:54.588Z,10.60
2023-04-10T07:08:21.443Z,10.83
2023-04-10T07:10:48.169Z,11.08
2023-04-10T07:13:14.882Z,11.31
2023-04-10T07:15:41.665Z,11.44
2023-04-10T07:18:08.436Z,11.57
2023-04-10T07:20:35.653Z,11.80
2023-04-10T07:23:02.339Z,11.99
2023-04-10T07:25:29.002Z,12.22
2023-04-10T07:27:55.692Z,12.42
2023-04-10T07:30:22.353Z,12.61
2023-04-10T07:32:49.226Z,12.82
2023-04-10T07:35:15.999Z,13.05
2023-04-10T07:37:44.157Z,13.33
2023-04-10T07:40:11.461Z,13.49
2023-04-10T07:42:38.278Z,13.81
2023-04-10T07:45:05.765Z,14.13
2023-04-10T07:47:32.496Z,14.42
2023-04-10T07:49:59.346Z,14.73
2023-04-10T07:52:26.106Z,14.96
2023-04-10T07:54:52.816Z,14.99
2023-04-10T07:57:19.587Z,14.90
2023-04-10T07:59:46.383Z,14.92
2023-04-10T08:02:13.230Z,15.18
2023-04-10T08:04:40.172Z,15.22
2023-04-10T08:07:06.922Z,15.36
2023-04-10T08:09:33.590Z,15.41
2023-04-10T08:12:00.382Z,15.55
2023-04-10T08:14:27.050Z,15.76
2023-04-10T08:16:53.926Z,15.70
2023-04-10T08:19:20.660Z,15.89
2023-04-10T08:21:47.380Z,16.16
2023-04-10T08:24:14.014Z,16.41
2023-04-10T08:26:40.784Z,16.79
2023-04-10T08:29:07.647Z,16.93
2023-04-10T08:31:34.499Z,16.90
2023-04-10T08:34:01.394Z,17.09
2023-04-10T08:36:28.181Z,17.40
2023-04-10T08:38:54.953Z,17.53
2023-04-10T08:41:21.814Z,17.48
2023-04-10T08:43:49.840Z,17.67
2023-04-10T08:46:16.951Z,18.13
2023-04-10T08:48:51.745Z,18.49
2023-04-10T08:51:26.036Z,18.92
2023-04-10T08:54:02.670Z,19.05
2023-04-10T08:56:31.350Z,19.25
2023-04-10T08:58:58.098Z,19.17
2023-04-10T09:01:25.335Z,19.49
2023-04-10T09:03:52.175Z,19.93
2023-04-10T09:06:19.009Z,20.35
2023-04-10T09:08:45.808Z,20.47
2023-04-10T09:11:13.448Z,20.50
2023-04-10T09:13:42.592Z,20.66
2023-04-10T09:16:10.621Z,20.66
2023-04-10T09:18:41.269Z,20.82
2023-04-10T09:21:11.979Z,20.55
2023-04-10T09:23:38.855Z,20.69
2023-04-10T09:26:27.340Z,20.66
2023-04-10T09:28:57.995Z,21.06
2023-04-10T09:31:32.834Z,21.18
2023-04-10T09:34:17.602Z,21.70
2023-04-10T09:36:58.600Z,21.37
2023-04-10T09:39:43.190Z,21.53
2023-04-10T09:42:11.555Z,22.16
2023-04-10T09:44:39.605Z,21.92
2023-04-10T09:47:18.716Z,21.41
2023-04-10T09:49:53.867Z,20.52
2023-04-10T09:52:34.180Z,20.46
2023-04-10T09:55:02.936Z,20.75
2023-04-10T09:57:31.280Z,20.12
2023-04-10T10:00:00.323Z,19.61
2023-04-10T10:02:29.885Z,19.35
2023-04-10T10:05:00.635Z,19.27
2023-04-10T10:07:27.978Z,18.58
2023-04-10T10:09:54.826Z,17.90
2023-04-10T10:12:30.978Z,17.19
2023-04-10T10:15:02.571Z,16.98
2023-04-10T10:17:32.520Z,17.12
2023-04-10T10:20:05.726Z,17.47
2023-04-10T10:22:32.716Z,17.77
2023-04-10T10:25:00.871Z,17.87
2023-04-10T10:27:28.855Z,18.00
2023-04-10T10:29:56.695Z,18.11
2023-04-10T10:32:24.185Z,18.03
2023-04-10T10:34:53.028Z,17.85
2023-04-10T10:37:21.469Z,17.67
2023-04-10T10:40:12.923Z,17.48
2023-04-10T10:42:52.919Z,17.03
2023-04-10T10:45:25.926Z,16.99
2023-04-10T10:47:54.401Z,16.94
2023-04-10T10:50:24.985Z,17.00
2023-04-10T10:52:54.037Z,16.94
2023-04-10T10:55:35.006Z,16.81
2023-04-10T10:58:05.039Z,16.80
2023-04-10T11:00:55.034Z,16.85
2023-04-10T11:03:22.676Z,16.87
2023-04-10T11:06:03.910Z,16.73
2023-04-10T11:08:33.664Z,16.79
2023-04-10T11:11:06.051Z,16.85
2023-04-10T11:13:34.146Z,16.82
2023-04-10T11:16:03.010Z,16.50
2023-04-10T11:18:45.245Z,16.31
2023-04-10T11:21:20.085Z,16.25
2023-04-10T11:23:49.814Z,16.36
2023-04-10T11:26:41.575Z,16.42
2023-04-10T11:29:19.988Z,16.58
2023-04-10T11:31:48.758Z,16.65
2023-04-10T11:34:15.865Z,16.59
2023-04-10T11:36:43.661Z,16.73
2023-04-10T11:39:19.195Z,16.90
2023-04-10T11:41:52.995Z,16.77
2023-04-10T11:44:25.713Z,16.62
2023-04-10T11:46:53.223Z,16.51
2023-04-10T11:49:21.351Z,16.47
2023-04-10T11:51:49.739Z,16.57
2023-04-10T11:54:18.159Z,16.62
2023-04-10T11:56:57.020Z,16.76
2023-04-10T11:59:24.271Z,16.81
2023-04-10T12:01:54.251Z,16.77
2023-04-10T12:04:22.591Z,16.80
2023-04-10T12:06:51.556Z,16.77
2023-04-10T12:09:20.630Z,16.42
2023-04-10T12:11:51.924Z,16.27
2023-04-10T12:14:20.020Z,16.18
2023-04-10T12:16:47.018Z,16.19
2023-04-10T12:19:14.809Z,16.24
2023-04-10T12:21:43.102Z,16.36
2023-04-10T12:24:10.254Z,16.45
2023-04-10T12:26:37.386Z,17.20
2023-04-10T12:29:06.311Z,18.41
2023-04-10T12:31:34.531Z,20.42
2023-04-10T12:34:02.208Z,22.48
2023-04-10T12:36:30.411Z,24.71
2023-04-10T12:38:58.379Z,25.22
2023-04-10T12:41:29.605Z,25.23
2023-04-10T12:44:13.407Z,26.90
2023-04-10T12:46:41.691Z,26.38
2023-04-10T12:49:18.742Z,24.65
2023-04-10T12:51:46.597Z,22.94
2023-04-10T12:54:34.015Z,21.91
2023-04-10T12:57:02.030Z,22.04
2023-04-10T12:59:29.857Z,22.18
2023-04-10T13:01:56.755Z,21.69
2023-04-10T13:04:23.758Z,21.90
2023-04-10T13:06:53.422Z,22.02
2023-04-10T13:09:20.288Z,24.17
2023-04-10T13:11:47.815Z,25.63
2023-04-10T13:14:16.988Z,28.16
2023-04-10T13:16:43.933Z,30.40
2023-04-10T13:19:10.888Z,29.43
2023-04-10T13:21:37.628Z,30.64
2023-04-10T13:24:04.392Z,31.97
2023-04-10T13:26:31.161Z,32.60
2023-04-10T13:28:57.876Z,33.48
2023-04-10T13:31:24.588Z,33.83
2023-04-10T13:33:51.353Z,32.45
2023-04-10T13:36:18.206Z,31.39
2023-04-10T13:38:45.025Z,32.50
2023-04-10T13:41:11.745Z,33.08
2023-04-10T13:43:38.492Z,30.91
2023-04-10T13:46:06.042Z,28.78
2023-04-10T13:48:40.060Z,31.08
2023-04-10T13:51:10.306Z,31.77
2023-04-10T13:53:37.072Z,31.57
2023-04-10T13:56:05.573Z,31.26
2023-04-10T13:58:34.292Z,32.15
2023-04-10T14:01:01.626Z,33.20
2023-04-10T14:03:28.439Z,34.65
2023-04-10T14:05:55.215Z,35.40
2023-04-10T14:08:21.991Z,36.58
2023-04-10T14:10:50.827Z,37.57
2023-04-10T14:13:18.071Z,36.63
2023-04-10T14:15:45.006Z,34.28
2023-04-10T14:18:12.049Z,34.33
2023-04-10T14:20:39.177Z,33.02
2023-04-10T14:23:05.907Z,33.61
2023-04-10T14:25:32.577Z,30.62
2023-04-10T14:27:59.863Z,28.65
2023-04-10T14:30:30.786Z,30.57
2023-04-10T14:32:57.675Z,32.37
2023-04-10T14:35:24.545Z,34.44
2023-04-10T14:37:51.384Z,35.19
2023-04-10T14:40:18.054Z,35.58
2023-04-10T14:42:45.937Z,36.56
2023-04-10T14:45:12.744Z,37.57
2023-04-10T14:47:39.572Z,38.10
2023-04-10T14:50:07.182Z,37.12
2023-04-10T14:52:33.966Z,36.21
2023-04-10T14:55:00.718Z,35.76
2023-04-10T14:57:29.638Z,34.43
2023-04-10T14:59:56.519Z,34.47
2023-04-10T15:02:23.616Z,33.94
2023-04-10T15:04:50.632Z,31.28
2023-04-10T15:07:17.323Z,29.07
2023-04-10T15:09:44.612Z,27.24
2023-04-10T15:12:11.306Z,25.75
2023-04-10T15:14:38.066Z,24.89
2023-04-10T15:17:04.996Z,23.66
2023-04-10T15:19:31.785Z,22.40
2023-04-10T15:21:58.526Z,21.85
2023-04-10T15:24:25.228Z,21.49
2023-04-10T15:26:53.554Z,21.18
2023-04-10T15:29:20.437Z,20.78
2023-04-10T15:31:47.239Z,20.55
2023-04-10T15:34:13.906Z,20.29
2023-04-10T15:36:40.692Z,20.07
2023-04-10T15:39:07.628Z,19.93
2023-04-10T15:41:34.439Z,19.66
2023-04-10T15:44:01.261Z,19.45
2023-04-10T15:46:32.307Z,19.33
2023-04-10T15:48:59.772Z,19.20
2023-04-10T15:51:27.153Z,19.09
2023-04-10T15:53:54.910Z,18.83
2023-04-10T15:56:21.965Z,18.68
2023-04-10T15:58:48.710Z,18.48
2023-04-10T16:01:15.533Z,18.23
2023-04-10T16:03:42.415Z,18.03
2023-04-10T16:06:09.444Z,17.81
2023-04-10T16:08:36.170Z,17.64
2023-04-10T16:11:02.912Z,17.39
2023-04-10T16:13:29.670Z,17.22
2023-04-10T16:15:56.411Z,16.99
2023-04-10T16:18:23.196Z,16.82
2023-04-10T16:20:49.938Z,16.64
2023-04-10T16:23:16.777Z,16.52
2023-04-10T16:25:43.592Z,16.37
2023-04-10T16:28:10.560Z,16.25
2023-04-10T16:30:39.948Z,16.07
2023-04-10T16:33:06.618Z,15.95
2023-04-10T16:35:33.486Z,15.84
2023-04-10T16:38:00.205Z,15.71
2023-04-10T16:40:32.641Z,15.62
2023-04-10T16:43:02.569Z,15.50
2023-04-10T16:45:29.405Z,15.38
2023-04-10T16:47:56.307Z,15.24
2023-04-10T16:50:23.063Z,15.14
2023-04-10T16:52:49.764Z,15.08
2023-04-10T16:55:16.550Z,15.08
2023-04-10T16:57:44.045Z,15.06
2023-04-10T17:00:11.547Z,15.05
2023-04-10T17:02:38.967Z,15.09
2023-04-10T17:05:06.165Z,15.09
2023-04-10T17:07:32.888Z,15.04
2023-04-10T17:09:59.639Z,14.98
2023-04-10T17:12:26.555Z,14.97
2023-04-10T17:14:53.255Z,14.92
2023-04-10T17:17:20.006Z,14.84
2023-04-10T17:19:46.864Z,14.77
2023-04-10T17:22:16.328Z,14.60
2023-04-10T17:24:46.148Z,14.42
2023-04-10T17:27:13.894Z,14.28
2023-04-10T17:29:41.075Z,14.13
2023-04-10T17:32:08.682Z,14.00
2023-04-10T17:34:35.626Z,13.88
2023-04-10T17:37:02.368Z,13.76
2023-04-10T17:39:29.172Z,13.68
2023-04-10T17:41:56.826Z,13.61
2023-04-10T17:44:23.733Z,13.53
2023-04-10T17:46:50.538Z,13.44
2023-04-10T17:49:17.362Z,13.39
2023-04-10T17:51:44.218Z,13.33
2023-04-10T17:54:10.944Z,13.32
2023-04-10T17:56:37.648Z,13.28
2023-04-10T17:59:04.496Z,13.27
2023-04-10T18:01:31.341Z,13.23
2023-04-10T18:03:59.159Z,13.23
2023-04-10T18:06:26.424Z,13.24
2023-04-10T18:08:53.434Z,13.26
2023-04-10T18:11:20.356Z,13.26
2023-04-10T18:13:47.179Z,13.29
2023-04-10T18:16:14.311Z,13.26
2023-04-10T18:18:42.269Z,13.24
2023-04-10T18:21:10.784Z,13.21
2023-04-10T18:23:38.046Z,13.11
2023-04-10T18:26:04.807Z,13.02
2023-04-10T18:28:31.679Z,12.95
2023-04-10T18:30:58.503Z,12.89
2023-04-10T18:33:26.346Z,12.83
2023-04-10T18:35:55.905Z,12.80
2023-04-10T18:38:23.623Z,12.74
2023-04-10T18:40:50.880Z,12.65
2023-04-10T18:43:17.607Z,12.70
2023-04-10T18:45:44.499Z,12.75
2023-04-10T18:48:11.327Z,12.81
2023-04-10T18:50:38.373Z,12.84
2023-04-10T18:53:05.290Z,12.88
2023-04-10T18:55:32.238Z,12.90
2023-04-10T18:57:59.215Z,12.95
2023-04-10T19:00:25.921Z,12.93
2023-04-10T19:02:53.642Z,12.88
2023-04-10T19:05:20.492Z,12.85
2023-04-10T19:08:00.536Z,12.81
2023-04-10T19:10:27.917Z,12.73
2023-04-10T19:12:56.148Z,12.64
2023-04-10T19:15:23.904Z,12.63
2023-04-10T19:17:54.583Z,12.59
2023-04-10T19:20:52.049Z,12.47
2023-04-10T19:23:09.392Z,12.36
2023-04-10T19:25:36.123Z,12.30
2023-04-10T19:28:02.898Z,12.24
2023-04-10T19:30:29.621Z,12.16
2023-04-10T19:32:56.407Z,12.10
2023-04-10T19:35:23.157Z,12.05
2023-04-10T19:37:49.970Z,12.03
2023-04-10T19:40:18.077Z,12.01
2023-04-10T19:42:45.059Z,11.98
2023-04-10T19:45:12.767Z,11.98
2023-04-10T19:47:39.619Z,11.91
2023-04-10T19:50:07.092Z,11.80
2023-04-10T19:52:33.927Z,11.70
2023-04-10T19:55:00.986Z,11.60
2023-04-10T19:57:27.808Z,11.44
2023-04-10T19:59:54.665Z,11.29
2023-04-10T20:02:22.840Z,11.10
2023-04-10T20:04:49.907Z,10.90
2023-04-10T20:07:16.776Z,10.71
2023-04-10T20:09:43.547Z,10.52
2023-04-10T20:12:10.703Z,10.40
2023-04-10T20:14:38.418Z,10.26
2023-04-10T20:17:05.255Z,10.14
2023-04-10T20:19:31.999Z,10.02
2023-04-10T20:22:00.773Z,9.89
2023-04-10T20:24:28.805Z,9.76
2023-04-10T20:26:57.208Z,9.61
2023-04-10T20:29:23.902Z,9.54
2023-04-10T20:31:50.717Z,9.42
2023-04-10T20:34:17.471Z,9.36
2023-04-10T20:36:44.226Z,9.25
2023-04-10T20:39:11.022Z,9.09
2023-04-10T20:41:37.772Z,9.07
2023-04-10T20:44:04.457Z,9.00
2023-04-10T20:46:31.248Z,8.89
2023-04-10T20:48:59.282Z,8.84
2023-04-10T20:51:27.424Z,8.73
2023-04-10T20:53:54.334Z,8.67
2023-04-10T20:56:24.914Z,8.60
2023-04-10T20:58:56.886Z,8.52
2023-04-10T21:01:23.635Z,8.42
2023-04-10T21:03:50.585Z,8.33
2023-04-10T21:06:18.206Z,8.31
2023-04-10T21:08:44.957Z,8.24
2023-04-10T21:11:11.698Z,8.19
2023-04-10T21:13:38.675Z,8.09
2023-04-10T21:16:06.465Z,8.05
2023-04-10T21:18:33.255Z,7.98
2023-04-10T21:20:59.961Z,7.92
2023-04-10T21:23:26.681Z,7.86
2023-04-10T21:25:53.468Z,7.77
2023-04-10T21:28:20.503Z,7.71
2023-04-10T21:30:47.292Z,7.66
2023-04-10T21:33:14.625Z,7.63
2023-04-10T21:35:44.960Z,7.57
2023-04-10T21:38:12.270Z,7.53
2023-04-10T21:40:38.998Z,7.48
2023-04-10T21:43:06.258Z,7.42
2023-04-10T21:45:37.465Z,7.38
2023-04-10T21:48:04.324Z,7.31
2023-04-10T21:50:31.265Z,7.21
2023-04-10T21:53:00.034Z,7.12
2023-04-10T21:55:26.926Z,7.05
2023-04-10T21:57:53.657Z,7.02
2023-04-10T22:00:22.638Z,6.93
2023-04-10T22:02:50.642Z,6.96
2023-04-10T22:05:17.478Z,6.93
2023-04-10T22:07:44.463Z,6.91
2023-04-10T22:10:11.334Z,6.87
2023-04-10T22:12:38.138Z,6.85
2023-04-10T22:15:06.799Z,6.85
2023-04-10T22:17:34.047Z,6.82
2023-04-10T22:20:00.874Z,6.80
2023-04-10T22:22:27.639Z,6.77
2023-04-10T22:24:54.277Z,6.70
2023-04-10T22:27:21.000Z,6.68
2023-04-10T22:29:59.957Z,6.61
2023-04-10T22:32:29.300Z,6.61
2023-04-10T22:34:56.110Z,6.57
2023-04-10T22:37:22.792Z,6.53
2023-04-10T22:39:49.557Z,6.47
2023-04-10T22:42:16.379Z,6.39
2023-04-10T22:44:44.682Z,6.36
2023-04-10T22:47:11.382Z,6.33
2023-04-10T22:49:38.107Z,6.30
2023-04-10T22:52:05.028Z,6.28
2023-04-10T22:54:31.803Z,6.22
2023-04-10T22:56:58.539Z,6.21
2023-04-10T22:59:25.237Z,6.15
2023-04-10T23:01:52.021Z,6.05
2023-04-10T23:04:18.847Z,6.01
2023-04-10T23:06:45.672Z,6.02
2023-04-10T23:09:12.480Z,5.99
2023-04-10T23:11:39.174Z,5.98
2023-04-10T23:14:05.946Z,5.94
2023-04-10T23:16:32.736Z,5.91
2023-04-10T23:18:59.433Z,5.88
2023-04-10T23:21:27.200Z,5.86
2023-04-10T23:23:53.993Z,5.82
2023-04-10T23:26:21.229Z,5.76
2023-04-10T23:28:48.087Z,5.76
2023-04-10T23:31:15.755Z,5.74
2023-04-10T23:33:42.631Z,5.73
2023-04-10T23:36:09.449Z,5.65
2023-04-10T23:38:36.216Z,5.68
2023-04-10T23:41:03.118Z,5.61
2023-04-10T23:43:29.951Z,5.63
2023-04-10T23:45:56.673Z,5.61
2023-04-10T23:48:23.403Z,5.62
2023-04-10T23:50:50.458Z,5.63
2023-04-10T23:53:17.418Z,5.62
2023-04-10T23:55:44.153Z,5.61
2023-04-10T23:58:11.146Z,5.58
